createdAt,value
2022-11-28T00:00:17.754Z,7.00
2022-11-28T00:01:35.767Z,5.80
2022-11-28T00:02:09.695Z,6.10
2022-11-28T00:02:43.083Z,6.10
2022-11-28T00:03:16.613Z,6.30
2022-11-28T00:03:50.060Z,6.00
2022-11-28T00:04:23.871Z,6.80
2022-11-28T00:04:57.463Z,7.50
2022-11-28T00:05:31.014Z,6.90
2022-11-28T00:06:06.203Z,7.00
2022-11-28T00:06:45.469Z,7.50
2022-11-28T00:07:19.553Z,7.40
2022-11-28T00:07:52.954Z,7.40
2022-11-28T00:08:26.212Z,7.60
2022-11-28T00:09:00.637Z,7.90
2022-11-28T00:09:34.065Z,7.20
2022-11-28T00:10:08.178Z,7.90
2022-11-28T00:10:41.760Z,7.40
2022-11-28T00:11:20.328Z,7.50
2022-11-28T00:11:54.774Z,7.90
2022-11-28T00:12:28.878Z,8.00
2022-11-28T00:13:02.193Z,7.40
2022-11-28T00:13:36.877Z,7.10
2022-11-28T00:14:14.846Z,7.40
2022-11-28T00:14:51.328Z,7.30
2022-11-28T00:15:24.800Z,7.60
2022-11-28T00:16:00.258Z,7.90
2022-11-28T00:16:33.845Z,8.30
2022-11-28T00:17:07.183Z,7.70
2022-11-28T00:17:40.579Z,8.10
2022-11-28T00:18:13.840Z,8.30
2022-11-28T00:18:47.718Z,8.30
2022-11-28T00:19:21.077Z,7.70
2022-11-28T00:19:54.485Z,8.50
2022-11-28T00:20:27.843Z,8.20
2022-11-28T00:21:03.101Z,8.40
2022-11-28T00:21:36.510Z,8.80
2022-11-28T00:22:09.845Z,8.40
2022-11-28T00:22:43.128Z,9.30
2022-11-28T00:23:16.428Z,9.30
2022-11-28T00:23:50.422Z,8.60
2022-11-28T00:24:24.058Z,8.90
2022-11-28T00:24:57.464Z,8.60
2022-11-28T00:25:30.713Z,8.90
2022-11-28T00:26:11.117Z,8.40
2022-11-28T00:26:44.657Z,8.10
2022-11-28T00:27:17.902Z,8.00
2022-11-28T00:27:51.868Z,7.30
2022-11-28T00:28:25.451Z,8.00
2022-11-28T00:29:00.852Z,8.20
2022-11-28T00:29:36.337Z,8.30
2022-11-28T00:30:11.071Z,7.80
2022-11-28T00:30:45.481Z,7.70
2022-11-28T00:31:22.044Z,7.80
2022-11-28T00:31:55.434Z,7.70
2022-11-28T00:32:28.830Z,7.80
2022-11-28T00:33:02.253Z,7.80
2022-11-28T00:33:35.838Z,7.80
2022-11-28T00:34:10.824Z,7.80
2022-11-28T00:34:44.732Z,7.70
2022-11-28T00:35:18.149Z,8.00
2022-11-28T00:35:51.723Z,7.10
2022-11-28T00:36:25.688Z,7.40
2022-11-28T00:36:59.229Z,7.30
2022-11-28T00:37:32.459Z,7.30
2022-11-28T00:38:06.112Z,7.90
2022-11-28T00:38:39.704Z,8.30
2022-11-28T00:39:14.193Z,8.10
2022-11-28T00:39:47.602Z,8.40
2022-11-28T00:40:20.920Z,9.70
2022-11-28T00:41:06.915Z,9.10
2022-11-28T00:41:40.510Z,8.80
2022-11-28T00:42:13.782Z,9.20
2022-11-28T00:42:47.142Z,9.40
2022-11-28T00:43:20.447Z,9.50
2022-11-28T00:43:53.813Z,9.70
2022-11-28T00:44:27.114Z,9.50
2022-11-28T00:45:00.425Z,9.00
2022-11-28T00:45:34.039Z,9.50
2022-11-28T00:46:07.819Z,9.40
2022-11-28T00:46:41.682Z,9.30
2022-11-28T00:47:15.840Z,10.00
2022-11-28T00:47:49.503Z,10.00
2022-11-28T00:48:23.463Z,9.50
2022-11-28T00:48:58.595Z,9.40
2022-11-28T00:49:32.014Z,9.10
2022-11-28T00:50:05.917Z,8.70
2022-11-28T00:50:39.190Z,8.50
2022-11-28T00:51:23.516Z,8.20
2022-11-28T00:51:56.877Z,8.50
2022-11-28T00:52:32.690Z,7.60
2022-11-28T00:53:05.945Z,7.90
2022-11-28T00:53:42.346Z,8.00
2022-11-28T00:54:15.890Z,7.50
2022-11-28T00:54:49.361Z,7.70
2022-11-28T00:55:22.720Z,7.40
2022-11-28T00:55:56.161Z,7.40
2022-11-28T00:56:32.601Z,7.30
2022-11-28T00:57:05.987Z,7.40
2022-11-28T00:57:39.373Z,6.90
2022-11-28T00:58:13.259Z,7.10
2022-11-28T00:58:47.980Z,7.40
2022-11-28T00:59:21.458Z,7.20
2022-11-28T00:59:54.819Z,7.50
2022-11-28T01:00:28.138Z,7.60
2022-11-28T01:01:09.098Z,7.40
2022-11-28T01:01:44.231Z,7.30
2022-11-28T01:02:17.719Z,7.10
2022-11-28T01:02:51.294Z,6.70
2022-11-28T01:03:24.859Z,7.10
2022-11-28T01:04:04.395Z,6.80
2022-11-28T01:04:37.724Z,6.60
2022-11-28T01:05:11.145Z,7.20
2022-11-28T01:05:44.501Z,7.20
2022-11-28T01:06:26.458Z,6.60
2022-11-28T01:06:59.867Z,6.50
2022-11-28T01:07:34.356Z,6.40
2022-11-28T01:08:08.049Z,6.20
2022-11-28T01:08:41.479Z,6.70
2022-11-28T01:09:24.455Z,6.70
2022-11-28T01:09:57.764Z,6.70
2022-11-28T01:10:31.198Z,6.80
2022-11-28T01:11:05.646Z,6.60
2022-11-28T01:11:41.366Z,7.10
2022-11-28T01:12:14.619Z,7.30
2022-11-28T01:12:47.951Z,7.30
2022-11-28T01:13:21.283Z,7.60
2022-11-28T01:13:57.072Z,7.50
2022-11-28T01:14:30.741Z,7.30
2022-11-28T01:15:10.400Z,7.10
2022-11-28T01:15:43.853Z,7.20
2022-11-28T01:16:17.367Z,7.50
2022-11-28T01:16:50.918Z,7.40
2022-11-28T01:17:24.449Z,8.20
2022-11-28T01:17:57.956Z,7.70
2022-11-28T01:18:31.250Z,7.50
2022-11-28T01:19:04.729Z,7.50
2022-11-28T01:19:38.402Z,7.50
2022-11-28T01:20:12.307Z,8.00
2022-11-28T01:20:45.601Z,6.90
2022-11-28T01:21:20.210Z,6.50
2022-11-28T01:21:53.786Z,7.50
2022-11-28T01:22:27.439Z,7.50
2022-11-28T01:23:00.724Z,6.90
2022-11-28T01:23:34.441Z,7.10
2022-11-28T01:24:07.954Z,7.60
2022-11-28T01:24:42.674Z,7.30
2022-11-28T01:25:16.507Z,7.10
2022-11-28T01:25:52.090Z,7.40
2022-11-28T01:26:27.996Z,7.10
2022-11-28T01:27:01.443Z,7.10
2022-11-28T01:27:36.515Z,7.10
2022-11-28T01:28:09.831Z,7.00
2022-11-28T01:28:43.113Z,7.30
2022-11-28T01:29:16.715Z,7.00
2022-11-28T01:29:52.399Z,6.90
2022-11-28T01:30:25.678Z,7.10
2022-11-28T01:31:04.888Z,6.60
2022-11-28T01:31:38.789Z,6.70
2022-11-28T01:32:11.972Z,6.20
2022-11-28T01:32:45.202Z,6.20
2022-11-28T01:33:18.527Z,6.60
2022-11-28T01:33:53.211Z,6.20
2022-11-28T01:34:29.189Z,6.20
2022-11-28T01:35:02.458Z,6.40
2022-11-28T01:35:35.844Z,6.20
2022-11-28T01:36:10.989Z,6.40
2022-11-28T01:36:44.671Z,5.30
2022-11-28T01:37:19.787Z,5.30
2022-11-28T01:37:53.111Z,5.90
2022-11-28T01:38:27.837Z,6.00
2022-11-28T01:39:01.379Z,5.90
2022-11-28T01:39:34.761Z,5.20
2022-11-28T01:40:08.839Z,5.50
2022-11-28T01:40:51.228Z,6.20
2022-11-28T01:41:27.945Z,5.70
2022-11-28T01:42:01.632Z,5.90
2022-11-28T01:42:35.088Z,5.20
2022-11-28T01:43:10.771Z,5.50
2022-11-28T01:44:00.936Z,5.60
2022-11-28T01:44:34.421Z,5.10
2022-11-28T01:45:12.547Z,5.70
2022-11-28T01:45:46.346Z,4.40
2022-11-28T01:46:19.648Z,5.40
2022-11-28T01:46:52.951Z,6.10
2022-11-28T01:47:30.683Z,5.10
2022-11-28T01:48:04.401Z,5.80
2022-11-28T01:48:42.131Z,5.60
2022-11-28T01:49:15.502Z,5.70
2022-11-28T01:49:50.309Z,6.10
2022-11-28T01:50:24.807Z,6.20
2022-11-28T01:51:01.302Z,6.10
2022-11-28T01:51:36.295Z,6.10
2022-11-28T01:52:13.622Z,6.10
2022-11-28T01:52:50.067Z,5.90
2022-11-28T01:53:26.443Z,5.90
2022-11-28T01:54:00.402Z,6.20
2022-11-28T01:54:36.395Z,5.70
2022-11-28T01:55:15.048Z,5.50
2022-11-28T01:56:20.393Z,5.70
2022-11-28T01:57:01.154Z,5.30
2022-11-28T01:57:35.067Z,5.10
2022-11-28T01:58:10.162Z,5.10
2022-11-28T01:58:47.529Z,5.40
2022-11-28T01:59:26.895Z,5.10
2022-11-28T02:00:11.863Z,5.20
2022-11-28T02:00:49.153Z,5.70
2022-11-28T02:01:27.500Z,4.90
2022-11-28T02:02:01.785Z,4.60
2022-11-28T02:02:41.142Z,5.10
2022-11-28T02:03:30.152Z,4.60
2022-11-28T02:04:04.834Z,4.70
2022-11-28T02:04:38.132Z,4.80
2022-11-28T02:05:11.709Z,4.50
2022-11-28T02:05:45.967Z,5.10
2022-11-28T02:06:22.267Z,4.70
2022-11-28T02:06:55.974Z,5.20
2022-11-28T02:07:29.562Z,4.80
2022-11-28T02:08:03.942Z,4.90
2022-11-28T02:08:37.647Z,4.80
2022-11-28T02:09:16.216Z,5.30
2022-11-28T02:09:49.606Z,4.60
2022-11-28T02:10:32.985Z,4.50
2022-11-28T02:11:11.933Z,4.40
2022-11-28T02:12:06.695Z,5.00
2022-11-28T02:13:07.884Z,4.50
2022-11-28T02:14:49.465Z,4.70
2022-11-28T02:15:46.810Z,4.60
2022-11-28T02:16:54.663Z,4.40
2022-11-28T02:17:59.841Z,4.50
2022-11-28T02:18:50.625Z,4.00
2022-11-28T02:20:08.473Z,4.60
2022-11-28T02:21:08.602Z,4.70
2022-11-28T02:21:41.926Z,4.50
2022-11-28T02:22:28.341Z,5.00
2022-11-28T02:23:04.506Z,4.50
2022-11-28T02:23:37.723Z,4.50
2022-11-28T02:24:40.298Z,5.00
2022-11-28T02:25:38.608Z,4.60
2022-11-28T02:26:47.119Z,5.00
2022-11-28T02:27:23.204Z,4.20
2022-11-28T02:28:31.101Z,4.40
2022-11-28T02:29:10.159Z,4.30
2022-11-28T02:29:58.431Z,4.40
2022-11-28T02:31:19.945Z,4.60
2022-11-28T02:32:12.083Z,4.00
2022-11-28T02:32:56.752Z,4.30
2022-11-28T02:33:44.865Z,4.20
2022-11-28T02:34:47.452Z,4.60
2022-11-28T02:36:03.864Z,4.10
2022-11-28T02:37:16.165Z,4.40
2022-11-28T02:38:08.667Z,4.30
2022-11-28T02:38:53.129Z,4.50
2022-11-28T02:39:32.164Z,4.40
2022-11-28T02:40:38.810Z,4.40
2022-11-28T02:41:35.143Z,4.50
2022-11-28T02:42:08.414Z,4.60
2022-11-28T02:42:56.893Z,5.10
2022-11-28T02:44:12.682Z,4.70
2022-11-28T02:45:06.957Z,4.50
2022-11-28T02:45:50.513Z,4.30
2022-11-28T02:46:41.593Z,5.00
2022-11-28T02:47:23.898Z,4.80
2022-11-28T02:48:05.097Z,4.50
2022-11-28T02:48:58.018Z,4.90
2022-11-28T02:51:31.778Z,4.50
2022-11-28T02:52:12.512Z,4.40
2022-11-28T02:52:56.899Z,4.50
2022-11-28T02:53:33.221Z,4.60
2022-11-28T02:54:09.497Z,4.80
2022-11-28T02:54:44.653Z,5.30
2022-11-28T02:55:18.802Z,4.90
2022-11-28T02:55:53.913Z,5.30
2022-11-28T02:56:27.341Z,5.40
2022-11-28T02:57:00.796Z,4.90
2022-11-28T02:57:43.369Z,4.90
2022-11-28T02:58:18.779Z,5.20
2022-11-28T02:58:52.592Z,4.90
2022-11-28T02:59:31.570Z,5.20
2022-11-28T03:00:36.251Z,5.10
2022-11-28T03:01:20.750Z,4.40
2022-11-28T03:01:54.374Z,4.60
2022-11-28T03:02:33.446Z,4.80
2022-11-28T03:03:28.306Z,4.90
2022-11-28T03:04:16.309Z,4.80
2022-11-28T03:05:28.316Z,4.60
2022-11-28T03:06:35.484Z,4.70
2022-11-28T03:07:22.731Z,4.60
2022-11-28T03:08:31.531Z,5.00
2022-11-28T03:09:36.363Z,4.60
2022-11-28T03:10:28.539Z,4.90
2022-11-28T03:11:13.222Z,4.70
2022-11-28T03:12:12.248Z,4.10
2022-11-28T03:13:08.455Z,4.60
2022-11-28T03:13:54.903Z,4.50
2022-11-28T03:14:50.925Z,4.70
2022-11-28T03:15:35.107Z,4.50
2022-11-28T03:16:31.435Z,4.80
2022-11-28T03:17:20.135Z,4.70
2022-11-28T03:18:21.695Z,4.90
2022-11-28T03:19:00.953Z,4.80
2022-11-28T03:19:40.015Z,4.70
2022-11-28T03:20:45.941Z,5.10
2022-11-28T03:21:43.240Z,4.90
2022-11-28T03:22:29.010Z,4.30
2022-11-28T03:23:29.847Z,4.70
2022-11-28T03:24:44.968Z,5.00
2022-11-28T03:25:43.771Z,4.20
2022-11-28T03:26:26.728Z,4.70
2022-11-28T03:27:26.446Z,4.90
2022-11-28T03:28:23.822Z,5.00
2022-11-28T03:29:18.902Z,4.90
2022-11-28T03:29:57.290Z,4.50
2022-11-28T03:30:39.254Z,4.90
2022-11-28T03:31:20.005Z,5.50
2022-11-28T03:32:04.230Z,4.80
2022-11-28T03:32:40.234Z,5.10
2022-11-28T03:33:16.520Z,4.90
2022-11-28T03:33:54.293Z,5.10
2022-11-28T03:34:38.377Z,5.10
2022-11-28T03:35:19.298Z,4.90
2022-11-28T03:35:58.435Z,4.80
2022-11-28T03:36:37.628Z,4.90
2022-11-28T03:37:28.055Z,5.00
2022-11-28T03:38:07.353Z,5.20
2022-11-28T03:38:45.601Z,5.20
2022-11-28T03:39:24.439Z,5.00
2022-11-28T03:40:03.103Z,5.10
2022-11-28T03:40:42.373Z,5.20
2022-11-28T03:41:22.337Z,5.00
2022-11-28T03:42:02.097Z,4.90
2022-11-28T03:42:40.710Z,4.90
2022-11-28T03:43:19.289Z,4.80
2022-11-28T03:43:57.068Z,5.10
2022-11-28T03:44:38.524Z,5.00
2022-11-28T03:45:11.855Z,5.10
2022-11-28T03:45:49.934Z,5.00
2022-11-28T03:46:27.775Z,4.80
2022-11-28T03:47:05.445Z,5.00
2022-11-28T03:47:44.577Z,5.10
2022-11-28T03:48:25.472Z,5.10
2022-11-28T03:49:01.185Z,4.90
2022-11-28T03:49:42.298Z,5.00
2022-11-28T03:50:25.994Z,5.20
2022-11-28T03:51:05.022Z,5.50
2022-11-28T03:51:46.541Z,5.40
2022-11-28T03:52:47.681Z,4.80
2022-11-28T03:53:31.007Z,5.20
2022-11-28T03:54:19.313Z,5.60
2022-11-28T03:55:01.615Z,4.90
2022-11-28T03:55:48.290Z,4.80
2022-11-28T03:56:40.757Z,5.00
2022-11-28T03:57:42.468Z,5.70
2022-11-28T03:58:24.635Z,5.70
2022-11-28T03:59:04.207Z,5.80
2022-11-28T03:59:54.673Z,6.30
2022-11-28T04:00:28.035Z,5.70
2022-11-28T04:01:24.324Z,6.20
2022-11-28T04:02:20.563Z,6.10
2022-11-28T04:03:09.010Z,5.80
2022-11-28T04:03:57.284Z,5.90
2022-11-28T04:04:41.136Z,5.40
2022-11-28T04:05:27.813Z,5.70
2022-11-28T04:06:13.680Z,6.00
2022-11-28T04:06:55.248Z,5.70
2022-11-28T04:07:45.174Z,5.90
2022-11-28T04:08:43.280Z,6.10
2022-11-28T04:09:27.718Z,5.70
2022-11-28T04:10:19.254Z,5.80
2022-11-28T04:11:10.560Z,5.50
2022-11-28T04:13:07.754Z,5.40
2022-11-28T04:14:17.208Z,4.80
2022-11-28T04:15:00.418Z,5.10
2022-11-28T04:15:41.973Z,5.20
2022-11-28T04:16:42.266Z,5.50
2022-11-28T04:17:27.586Z,5.00
2022-11-28T04:18:15.295Z,5.40
2022-11-28T04:19:23.865Z,5.50
2022-11-28T04:20:06.632Z,5.40
2022-11-28T04:20:49.618Z,5.40
2022-11-28T04:21:22.938Z,5.10
2022-11-28T04:22:30.263Z,5.40
2022-11-28T04:23:10.587Z,5.10
2022-11-28T04:23:46.293Z,5.60
2022-11-28T04:24:26.504Z,5.60
2022-11-28T04:25:07.303Z,5.40
2022-11-28T04:25:47.258Z,5.40
2022-11-28T04:26:34.842Z,5.20
2022-11-28T04:27:13.827Z,5.30
2022-11-28T04:27:52.720Z,5.10
2022-11-28T04:28:32.263Z,5.40
2022-11-28T04:29:10.126Z,5.40
2022-11-28T04:29:48.307Z,5.50
2022-11-28T04:30:21.894Z,5.10
2022-11-28T04:30:58.160Z,5.50
2022-11-28T04:31:33.122Z,5.50
2022-11-28T04:32:09.584Z,6.10
2022-11-28T04:32:50.113Z,5.30
2022-11-28T04:33:26.898Z,5.20
2022-11-28T04:34:06.153Z,5.70
2022-11-28T04:34:43.782Z,5.40
2022-11-28T04:35:25.920Z,5.40
2022-11-28T04:36:00.992Z,5.40
2022-11-28T04:36:38.234Z,5.80
2022-11-28T04:37:17.044Z,5.60
2022-11-28T04:37:53.510Z,5.60
2022-11-28T04:38:29.994Z,5.80
2022-11-28T04:39:07.728Z,5.70
2022-11-28T04:39:45.063Z,6.20
2022-11-28T04:40:20.955Z,6.20
2022-11-28T04:41:01.136Z,5.90
2022-11-28T04:41:43.533Z,5.60
2022-11-28T04:42:21.638Z,6.30
2022-11-28T04:43:05.167Z,5.80
2022-11-28T04:43:45.243Z,5.80
2022-11-28T04:44:30.913Z,5.80
2022-11-28T04:45:18.646Z,5.50
2022-11-28T04:45:56.312Z,6.10
2022-11-28T04:46:39.895Z,6.00
2022-11-28T04:47:13.391Z,5.70
2022-11-28T04:47:46.835Z,5.50
2022-11-28T04:48:20.388Z,6.30
2022-11-28T04:48:54.060Z,6.60
2022-11-28T04:49:29.769Z,6.30
2022-11-28T04:50:04.328Z,5.70
2022-11-28T04:50:45.779Z,6.00
2022-11-28T04:51:42.486Z,5.90
2022-11-28T04:52:26.080Z,5.70
2022-11-28T04:53:08.264Z,5.70
2022-11-28T04:53:54.683Z,6.00
2022-11-28T04:54:38.192Z,5.90
2022-11-28T04:55:42.643Z,6.00
2022-11-28T04:56:28.826Z,5.60
2022-11-28T04:57:18.135Z,5.80
2022-11-28T04:58:04.061Z,5.80
2022-11-28T04:58:43.726Z,6.20
2022-11-28T04:59:17.805Z,5.80
2022-11-28T04:59:51.830Z,5.90
2022-11-28T05:00:27.369Z,6.40
2022-11-28T05:01:05.516Z,6.30
2022-11-28T05:01:44.426Z,5.90
2022-11-28T05:02:20.081Z,6.30
2022-11-28T05:02:55.184Z,6.10
2022-11-28T05:03:30.044Z,6.20
2022-11-28T05:04:03.500Z,6.40
2022-11-28T05:04:37.666Z,6.30
2022-11-28T05:05:15.758Z,6.10
2022-11-28T05:05:51.575Z,5.60
2022-11-28T05:06:34.587Z,6.20
2022-11-28T05:07:08.894Z,5.90
2022-11-28T05:07:42.365Z,6.00
2022-11-28T05:08:16.310Z,5.70
2022-11-28T05:08:49.687Z,5.90
2022-11-28T05:09:23.049Z,5.90
2022-11-28T05:09:57.919Z,6.30
2022-11-28T05:10:31.412Z,6.00
2022-11-28T05:11:05.051Z,6.00
2022-11-28T05:11:38.657Z,6.30
2022-11-28T05:12:12.032Z,6.20
2022-11-28T05:12:46.328Z,5.70
2022-11-28T05:13:19.622Z,5.60
2022-11-28T05:13:53.389Z,5.90
2022-11-28T05:14:27.092Z,5.90
2022-11-28T05:15:00.958Z,6.30
2022-11-28T05:15:34.641Z,5.80
2022-11-28T05:16:07.949Z,6.10
2022-11-28T05:16:41.323Z,6.20
2022-11-28T05:17:17.743Z,5.70
2022-11-28T05:17:51.084Z,6.30
2022-11-28T05:18:24.477Z,5.60
2022-11-28T05:18:58.136Z,5.70
2022-11-28T05:19:31.469Z,6.10
2022-11-28T05:20:06.850Z,6.20
2022-11-28T05:20:40.158Z,6.10
2022-11-28T05:21:13.962Z,5.70
2022-11-28T05:21:47.719Z,6.30
2022-11-28T05:22:20.938Z,6.30
2022-11-28T05:22:54.575Z,6.10
2022-11-28T05:23:27.923Z,6.10
2022-11-28T05:24:01.375Z,6.30
2022-11-28T05:24:34.907Z,6.50
2022-11-28T05:25:08.590Z,6.30
2022-11-28T05:25:41.908Z,6.30
2022-11-28T05:26:38.894Z,5.90
2022-11-28T05:27:12.878Z,6.00
2022-11-28T05:27:48.130Z,5.80
2022-11-28T05:28:23.583Z,5.90
2022-11-28T05:28:57.274Z,6.70
2022-11-28T05:29:40.104Z,6.20
2022-11-28T05:30:23.159Z,6.30
2022-11-28T05:31:01.857Z,6.10
2022-11-28T05:31:39.574Z,6.40
2022-11-28T05:32:13.515Z,6.40
2022-11-28T05:32:46.935Z,5.70
2022-11-28T05:33:21.208Z,6.80
2022-11-28T05:33:56.624Z,6.20
2022-11-28T05:34:31.373Z,6.30
2022-11-28T05:35:12.898Z,6.30
2022-11-28T05:35:54.807Z,5.90
2022-11-28T05:36:29.727Z,6.10
2022-11-28T05:37:05.297Z,6.20
2022-11-28T05:37:46.583Z,6.10
2022-11-28T05:38:21.521Z,6.50
2022-11-28T05:38:55.386Z,6.20
2022-11-28T05:39:34.538Z,6.20
2022-11-28T05:40:27.824Z,5.80
2022-11-28T05:41:10.575Z,6.00
2022-11-28T05:41:47.276Z,5.90
2022-11-28T05:42:21.655Z,6.60
2022-11-28T05:43:03.098Z,6.30
2022-11-28T05:43:40.704Z,6.00
2022-11-28T05:44:15.399Z,6.40
2022-11-28T05:44:52.286Z,6.50
2022-11-28T05:45:30.824Z,6.10
2022-11-28T05:46:08.366Z,6.30
2022-11-28T05:46:42.155Z,5.80
2022-11-28T05:47:28.687Z,6.30
2022-11-28T05:48:13.430Z,6.00
2022-11-28T05:49:00.147Z,6.40
2022-11-28T05:49:33.697Z,6.20
2022-11-28T05:50:20.819Z,5.90
2022-11-28T05:51:33.274Z,5.40
2022-11-28T05:52:20.678Z,5.50
2022-11-28T05:52:54.265Z,5.70
2022-11-28T05:53:32.280Z,5.90
2022-11-28T05:54:12.218Z,5.90
2022-11-28T05:55:00.644Z,6.40
2022-11-28T05:55:38.607Z,6.30
2022-11-28T05:56:15.337Z,5.80
2022-11-28T05:56:58.839Z,5.90
2022-11-28T05:57:32.506Z,6.10
2022-11-28T05:58:06.733Z,6.00
2022-11-28T05:58:41.685Z,6.30
2022-11-28T05:59:17.811Z,5.60
2022-11-28T05:59:53.490Z,6.00
2022-11-28T06:00:27.141Z,6.60
2022-11-28T06:01:00.701Z,5.80
2022-11-28T06:01:34.735Z,5.90
2022-11-28T06:02:22.338Z,6.40
2022-11-28T06:03:11.882Z,5.70
2022-11-28T06:03:48.072Z,6.00
2022-11-28T06:04:21.925Z,6.00
2022-11-28T06:04:55.699Z,6.70
2022-11-28T06:05:43.505Z,7.00
2022-11-28T06:06:24.068Z,5.90
2022-11-28T06:07:16.812Z,10.00
2022-11-28T06:07:53.723Z,8.30
2022-11-28T06:08:28.674Z,6.90
2022-11-28T06:09:09.960Z,6.60
2022-11-28T06:09:43.688Z,6.60
2022-11-28T06:10:19.937Z,6.30
2022-11-28T06:10:58.377Z,6.20
2022-11-28T06:11:33.691Z,6.20
2022-11-28T06:12:09.065Z,6.00
2022-11-28T06:12:51.673Z,5.60
2022-11-28T06:13:32.157Z,6.10
2022-11-28T06:14:10.365Z,5.80
2022-11-28T06:14:44.431Z,6.00
2022-11-28T06:15:32.644Z,6.70
2022-11-28T06:16:25.393Z,6.40
2022-11-28T06:17:11.669Z,5.40
2022-11-28T06:17:45.392Z,6.20
2022-11-28T06:18:30.008Z,6.10
2022-11-28T06:19:06.926Z,5.90
2022-11-28T06:19:40.797Z,6.40
2022-11-28T06:20:26.632Z,6.40
2022-11-28T06:21:06.251Z,6.00
2022-11-28T06:21:43.715Z,6.10
2022-11-28T06:22:21.939Z,6.60
2022-11-28T06:22:55.597Z,6.20
2022-11-28T06:23:32.361Z,5.90
2022-11-28T06:24:11.480Z,6.30
2022-11-28T06:24:55.618Z,6.40
2022-11-28T06:25:36.489Z,6.20
2022-11-28T06:26:15.117Z,6.40
2022-11-28T06:27:14.485Z,5.60
2022-11-28T06:27:58.031Z,6.10
2022-11-28T06:28:38.463Z,6.00
2022-11-28T06:29:20.635Z,6.00
2022-11-28T06:29:54.148Z,5.90
2022-11-28T06:30:30.771Z,5.70
2022-11-28T06:31:08.367Z,6.00
2022-11-28T06:31:44.976Z,6.00
2022-11-28T06:32:22.930Z,6.30
2022-11-28T06:32:59.072Z,6.00
2022-11-28T06:33:38.598Z,6.30
2022-11-28T06:34:19.692Z,8.80
2022-11-28T06:34:55.937Z,8.00
2022-11-28T06:35:32.642Z,8.20
2022-11-28T06:36:11.947Z,7.30
2022-11-28T06:36:47.818Z,6.90
2022-11-28T06:37:22.676Z,6.60
2022-11-28T06:37:59.644Z,6.30
2022-11-28T06:38:35.056Z,6.20
2022-11-28T06:39:22.700Z,6.10
2022-11-28T06:39:58.098Z,6.00
2022-11-28T06:40:35.398Z,6.70
2022-11-28T06:41:20.976Z,6.70
2022-11-28T06:41:54.693Z,6.30
2022-11-28T06:42:57.747Z,6.70
2022-11-28T06:43:34.927Z,6.00
2022-11-28T06:44:15.880Z,6.90
2022-11-28T06:44:55.533Z,6.60
2022-11-28T06:45:38.854Z,6.50
2022-11-28T06:46:41.278Z,6.90
2022-11-28T06:47:21.060Z,6.20
2022-11-28T06:47:57.771Z,6.40
2022-11-28T06:48:31.466Z,7.50
2022-11-28T06:49:08.244Z,6.90
2022-11-28T06:49:44.676Z,7.40
2022-11-28T06:50:22.897Z,7.60
2022-11-28T06:51:08.423Z,7.90
2022-11-28T06:51:42.978Z,7.50
2022-11-28T06:52:27.733Z,7.00
2022-11-28T06:53:20.954Z,6.50
2022-11-28T06:53:56.235Z,6.20
2022-11-28T06:54:41.792Z,5.30
2022-11-28T06:55:25.654Z,6.00
2022-11-28T06:56:21.513Z,5.90
2022-11-28T06:56:55.838Z,6.20
2022-11-28T06:57:45.469Z,6.40
2022-11-28T06:58:21.941Z,6.30
2022-11-28T06:58:57.921Z,7.00
2022-11-28T06:59:37.674Z,6.60
2022-11-28T07:00:12.113Z,6.70
2022-11-28T07:00:49.767Z,6.50
2022-11-28T07:01:25.682Z,6.90
2022-11-28T07:02:07.421Z,6.70
2022-11-28T07:02:50.847Z,7.00
2022-11-28T07:03:24.611Z,6.90
2022-11-28T07:03:59.142Z,6.90
2022-11-28T07:04:38.475Z,6.70
2022-11-28T07:05:21.058Z,7.30
2022-11-28T07:05:55.025Z,6.70
2022-11-28T07:06:31.870Z,6.60
2022-11-28T07:07:13.711Z,7.30
2022-11-28T07:07:59.697Z,6.70
2022-11-28T07:08:35.325Z,6.60
2022-11-28T07:09:09.062Z,6.70
2022-11-28T07:09:42.776Z,7.10
2022-11-28T07:10:39.815Z,7.20
2022-11-28T07:11:30.328Z,7.00
2022-11-28T07:12:09.865Z,6.90
2022-11-28T07:12:46.164Z,6.90
2022-11-28T07:13:21.974Z,7.40
2022-11-28T07:13:59.158Z,7.40
2022-11-28T07:14:46.992Z,7.50
2022-11-28T07:15:24.055Z,7.00
2022-11-28T07:16:03.138Z,6.80
2022-11-28T07:16:39.649Z,7.30
2022-11-28T07:17:20.126Z,7.50
2022-11-28T07:18:09.057Z,7.40
2022-11-28T07:18:43.786Z,7.30
2022-11-28T07:19:23.225Z,7.30
2022-11-28T07:19:56.970Z,7.40
2022-11-28T07:20:33.157Z,7.50
2022-11-28T07:21:09.789Z,7.10
2022-11-28T07:21:57.522Z,7.60
2022-11-28T07:22:46.453Z,7.20
2022-11-28T07:23:22.382Z,6.80
2022-11-28T07:24:00.113Z,6.90
2022-11-28T07:24:41.561Z,7.40
2022-11-28T07:25:36.919Z,7.80
2022-11-28T07:26:21.414Z,7.20
2022-11-28T07:26:55.123Z,7.30
2022-11-28T07:27:33.178Z,8.30
2022-11-28T07:28:12.166Z,8.30
2022-11-28T07:28:56.442Z,8.40
2022-11-28T07:29:44.595Z,8.10
2022-11-28T07:30:41.842Z,8.80
2022-11-28T07:31:34.102Z,7.30
2022-11-28T07:32:12.240Z,8.70
2022-11-28T07:32:48.880Z,8.20
2022-11-28T07:33:22.501Z,8.80
2022-11-28T07:34:01.390Z,8.50
2022-11-28T07:34:44.639Z,9.70
2022-11-28T07:35:27.493Z,9.20
2022-11-28T07:36:11.669Z,8.20
2022-11-28T07:36:46.394Z,9.80
2022-11-28T07:37:19.872Z,9.30
2022-11-28T07:37:57.359Z,9.80
2022-11-28T07:38:37.570Z,9.00
2022-11-28T07:39:15.925Z,9.20
2022-11-28T07:39:49.263Z,9.80
2022-11-28T07:40:23.242Z,9.40
2022-11-28T07:41:03.341Z,9.30
2022-11-28T07:41:50.982Z,9.30
2022-11-28T07:42:30.528Z,9.10
2022-11-28T07:43:24.672Z,9.10
2022-11-28T07:44:22.208Z,8.80
2022-11-28T07:44:57.083Z,9.10
2022-11-28T07:45:59.386Z,9.40
2022-11-28T07:46:50.303Z,8.80
2022-11-28T07:47:27.816Z,9.30
2022-11-28T07:48:08.527Z,9.10
2022-11-28T07:48:42.445Z,9.50
2022-11-28T07:49:16.398Z,10.20
2022-11-28T07:49:52.141Z,10.10
2022-11-28T07:50:53.500Z,9.70
2022-11-28T07:51:47.735Z,9.20
2022-11-28T07:52:25.355Z,8.90
2022-11-28T07:53:11.347Z,8.90
2022-11-28T07:53:46.838Z,9.30
2022-11-28T07:54:25.499Z,9.10
2022-11-28T07:55:19.354Z,9.10
2022-11-28T07:55:52.918Z,9.80
2022-11-28T07:56:50.112Z,9.30
2022-11-28T07:57:27.517Z,8.70
2022-11-28T07:58:10.018Z,8.50
2022-11-28T07:59:26.883Z,9.30
2022-11-28T08:00:00.555Z,9.60
2022-11-28T08:00:41.616Z,9.00
2022-11-28T08:01:19.422Z,9.60
2022-11-28T08:01:54.221Z,10.00
2022-11-28T08:02:57.895Z,9.90
2022-11-28T08:03:32.879Z,9.80
2022-11-28T08:05:01.612Z,9.10
2022-11-28T08:05:37.111Z,9.80
2022-11-28T08:06:11.006Z,9.20
2022-11-28T08:06:44.797Z,9.80
2022-11-28T08:07:20.043Z,10.40
2022-11-28T08:07:53.622Z,9.30
2022-11-28T08:08:33.170Z,9.90
2022-11-28T08:09:07.353Z,10.00
2022-11-28T08:09:40.874Z,9.00
2022-11-28T08:10:14.264Z,9.20
2022-11-28T08:10:47.582Z,9.00
2022-11-28T08:11:25.308Z,8.80
2022-11-28T08:12:48.436Z,9.30
2022-11-28T08:13:22.008Z,8.80
2022-11-28T08:13:57.925Z,9.50
2022-11-28T08:14:39.523Z,9.20
2022-11-28T08:15:15.366Z,8.80
2022-11-28T08:15:48.802Z,9.10
2022-11-28T08:16:24.936Z,9.40
2022-11-28T08:17:08.226Z,9.50
2022-11-28T08:17:46.148Z,8.70
2022-11-28T08:18:22.609Z,8.90
2022-11-28T08:19:01.819Z,9.50
2022-11-28T08:19:38.081Z,9.40
2022-11-28T08:20:19.267Z,10.10
2022-11-28T08:21:12.836Z,9.30
2022-11-28T08:21:46.336Z,8.90
2022-11-28T08:22:27.021Z,9.50
2022-11-28T08:23:26.526Z,9.00
2022-11-28T08:24:20.748Z,8.60
2022-11-28T08:24:55.313Z,8.10
2022-11-28T08:25:37.691Z,9.30
2022-11-28T08:26:17.408Z,9.90
2022-11-28T08:26:54.948Z,9.20
2022-11-28T08:27:32.733Z,9.10
2022-11-28T08:28:22.067Z,9.20
2022-11-28T08:29:01.779Z,10.10
2022-11-28T08:29:41.083Z,9.80
2022-11-28T08:31:17.521Z,9.50
2022-11-28T08:31:53.085Z,9.30
2022-11-28T08:32:46.291Z,8.70
2022-11-28T08:33:24.872Z,8.50
2022-11-28T08:34:24.814Z,9.60
2022-11-28T08:35:37.781Z,10.00
2022-11-28T08:36:13.523Z,8.40
2022-11-28T08:36:52.312Z,9.10
2022-11-28T08:37:31.787Z,9.70
2022-11-28T08:38:09.616Z,10.10
2022-11-28T08:38:57.821Z,10.10
2022-11-28T08:39:43.850Z,10.10
2022-11-28T08:40:17.397Z,10.80
2022-11-28T08:41:00.758Z,9.60
2022-11-28T08:41:50.126Z,10.40
2022-11-28T08:42:26.494Z,10.30
2022-11-28T08:43:09.115Z,10.90
2022-11-28T08:43:46.499Z,10.60
2022-11-28T08:44:22.015Z,10.50
2022-11-28T08:45:11.951Z,10.20
2022-11-28T08:45:48.709Z,10.40
2022-11-28T08:46:23.571Z,10.40
2022-11-28T08:47:01.008Z,10.50
2022-11-28T08:47:41.982Z,11.50
2022-11-28T08:48:21.140Z,11.40
2022-11-28T08:49:05.772Z,11.00
2022-11-28T08:49:39.638Z,11.10
2022-11-28T08:50:12.940Z,10.80
2022-11-28T08:50:51.336Z,10.90
2022-11-28T08:51:34.973Z,10.30
2022-11-28T08:52:19.507Z,10.10
2022-11-28T08:53:01.891Z,11.00
2022-11-28T08:53:49.347Z,11.30
2022-11-28T08:54:26.152Z,10.80
2022-11-28T08:54:59.872Z,10.40
2022-11-28T08:55:36.589Z,10.40
2022-11-28T08:56:13.332Z,10.80
2022-11-28T08:56:48.184Z,11.30
2022-11-28T08:57:21.508Z,11.10
2022-11-28T08:57:55.428Z,10.70
2022-11-28T08:58:32.168Z,11.70
2022-11-28T08:59:07.205Z,10.70
2022-11-28T08:59:41.182Z,11.30